sensor_id;sensor_type;location;lat;lon;timestamp;temperature;humidity
65369;HTU21D;51970;53.484;49.488;2022-11-09T00:01:21;4.34;76.21
65369;HTU21D;51970;53.484;49.488;2022-11-09T00:03:47;4.31;76.44
65369;HTU21D;51970;53.484;49.488;2022-11-09T00:06:13;4.27;76.12
65369;HTU21D;51970;53.484;49.488;2022-11-09T00:08:40;4.24;76.18
65369;HTU21D;51970;53.484;49.488;2022-11-09T00:11:10;4.22;76.46
65369;HTU21D;51970;53.484;49.488;2022-11-09T00:13:38;4.22;76.46
65369;HTU21D;51970;53.484;49.488;2022-11-09T00:16:05;4.17;76.71
65369;HTU21D;51970;53.484;49.488;2022-11-09T00:18:33;4.15;76.97
65369;HTU21D;51970;53.484;49.488;2022-11-09T00:21:07;4.18;77.15
65369;HTU21D;51970;53.484;49.488;2022-11-09T00:23:34;4.18;77.22
65369;HTU21D;51970;53.484;49.488;2022-11-09T00:26:02;4.20;76.87
65369;HTU21D;51970;53.484;49.488;2022-11-09T00:28:28;4.22;76.34
65369;HTU21D;51970;53.484;49.488;2022-11-09T00:31:01;4.22;76.08
65369;HTU21D;51970;53.484;49.488;2022-11-09T00:33:27;4.27;75.64
65369;HTU21D;51970;53.484;49.488;2022-11-09T00:35:53;4.23;75.34
65369;HTU21D;51970;53.484;49.488;2022-11-09T00:38:19;4.19;75.40
65369;HTU21D;51970;53.484;49.488;2022-11-09T00:40:46;4.23;75.43
65369;HTU21D;51970;53.484;49.488;2022-11-09T00:43:12;4.24;75.43
65369;HTU21D;51970;53.484;49.488;2022-11-09T00:45:38;4.28;75.33
65369;HTU21D;51970;53.484;49.488;2022-11-09T00:48:05;4.31;75.03
65369;HTU21D;51970;53.484;49.488;2022-11-09T00:50:32;4.33;74.70
65369;HTU21D;51970;53.484;49.488;2022-11-09T00:52:59;4.28;74.89
65369;HTU21D;51970;53.484;49.488;2022-11-09T00:55:25;4.27;75.14
65369;HTU21D;51970;53.484;49.488;2022-11-09T00:57:51;4.24;75.04
65369;HTU21D;51970;53.484;49.488;2022-11-09T01:00:20;4.23;74.95
65369;HTU21D;51970;53.484;49.488;2022-11-09T01:02:48;4.29;74.95
65369;HTU21D;51970;53.484;49.488;2022-11-09T01:05:15;4.31;74.70
65369;HTU21D;51970;53.484;49.488;2022-11-09T01:07:41;4.28;74.54
65369;HTU21D;51970;53.484;49.488;2022-11-09T01:10:07;4.23;74.81
65369;HTU21D;51970;53.484;49.488;2022-11-09T01:12:33;4.26;74.83
65369;HTU21D;51970;53.484;49.488;2022-11-09T01:14:59;4.24;74.79
65369;HTU21D;51970;53.484;49.488;2022-11-09T01:17:26;4.22;74.70
65369;HTU21D;51970;53.484;49.488;2022-11-09T01:19:52;4.23;74.47
65369;HTU21D;51970;53.484;49.488;2022-11-09T01:22:18;4.27;74.49
65369;HTU21D;51970;53.484;49.488;2022-11-09T01:24:44;4.26;74.52
65369;HTU21D;51970;53.484;49.488;2022-11-09T01:27:10;4.23;74.31
65369;HTU21D;51970;53.484;49.488;2022-11-09T01:29:36;4.24;74.24
65369;HTU21D;51970;53.484;49.488;2022-11-09T01:32:03;4.24;74.57
65369;HTU21D;51970;53.484;49.488;2022-11-09T01:34:29;4.22;74.28
65369;HTU21D;51970;53.484;49.488;2022-11-09T01:36:55;4.23;74.58
65369;HTU21D;51970;53.484;49.488;2022-11-09T01:39:21;4.22;74.46
65369;HTU21D;51970;53.484;49.488;2022-11-09T01:41:47;4.18;74.55
65369;HTU21D;51970;53.484;49.488;2022-11-09T01:44:16;4.22;74.41
65369;HTU21D;51970;53.484;49.488;2022-11-09T01:46:50;4.19;74.43
65369;HTU21D;51970;53.484;49.488;2022-11-09T01:49:33;4.20;74.41
65369;HTU21D;51970;53.484;49.488;2022-11-09T01:55:10;4.24;74.40
65369;HTU21D;51970;53.484;49.488;2022-11-09T01:57:43;4.21;74.48
65369;HTU21D;51970;53.484;49.488;2022-11-09T02:00:12;4.18;74.41
65369;HTU21D;51970;53.484;49.488;2022-11-09T02:02:43;4.15;74.37
65369;HTU21D;51970;53.484;49.488;2022-11-09T02:05:13;4.14;74.60
65369;HTU21D;51970;53.484;49.488;2022-11-09T02:07:41;4.15;74.31
65369;HTU21D;51970;53.484;49.488;2022-11-09T02:10:13;4.15;74.67
65369;HTU21D;51970;53.484;49.488;2022-11-09T02:12:39;4.17;74.66
65369;HTU21D;51970;53.484;49.488;2022-11-09T02:15:08;4.10;74.72
65369;HTU21D;51970;53.484;49.488;2022-11-09T02:17:35;4.09;74.85
65369;HTU21D;51970;53.484;49.488;2022-11-09T02:20:05;4.17;74.86
65369;HTU21D;51970;53.484;49.488;2022-11-09T02:22:32;4.19;75.15
65369;HTU21D;51970;53.484;49.488;2022-11-09T02:24:59;4.12;75.54
65369;HTU21D;51970;53.484;49.488;2022-11-09T02:27:25;4.08;76.32
65369;HTU21D;51970;53.484;49.488;2022-11-09T02:29:52;4.03;76.18
65369;HTU21D;51970;53.484;49.488;2022-11-09T02:32:20;4.07;76.51
65369;HTU21D;51970;53.484;49.488;2022-11-09T02:34:47;4.02;76.07
65369;HTU21D;51970;53.484;49.488;2022-11-09T02:37:31;3.99;76.70
65369;HTU21D;51970;53.484;49.488;2022-11-09T02:40:00;3.99;76.64
65369;HTU21D;51970;53.484;49.488;2022-11-09T02:42:28;3.98;75.92
65369;HTU21D;51970;53.484;49.488;2022-11-09T02:44:56;3.95;76.24
65369;HTU21D;51970;53.484;49.488;2022-11-09T02:47:23;4.08;76.32
65369;HTU21D;51970;53.484;49.488;2022-11-09T02:49:50;4.01;76.15
65369;HTU21D;51970;53.484;49.488;2022-11-09T02:52:17;4.17;75.83
65369;HTU21D;51970;53.484;49.488;2022-11-09T02:54:43;4.09;75.53
65369;HTU21D;51970;53.484;49.488;2022-11-09T02:57:10;4.02;75.25
65369;HTU21D;51970;53.484;49.488;2022-11-09T02:59:36;3.99;75.38
65369;HTU21D;51970;53.484;49.488;2022-11-09T03:02:02;4.00;75.28
65369;HTU21D;51970;53.484;49.488;2022-11-09T03:04:28;4.03;74.67
65369;HTU21D;51970;53.484;49.488;2022-11-09T03:06:54;4.03;74.73
65369;HTU21D;51970;53.484;49.488;2022-11-09T03:09:21;4.03;74.71
65369;HTU21D;51970;53.484;49.488;2022-11-09T03:11:47;4.03;74.71
65369;HTU21D;51970;53.484;49.488;2022-11-09T03:14:14;4.03;75.05
65369;HTU21D;51970;53.484;49.488;2022-11-09T03:16:40;4.06;74.76
65369;HTU21D;51970;53.484;49.488;2022-11-09T03:19:06;4.00;74.70
65369;HTU21D;51970;53.484;49.488;2022-11-09T03:21:33;4.05;74.96
65369;HTU21D;51970;53.484;49.488;2022-11-09T03:23:59;4.07;74.60
65369;HTU21D;51970;53.484;49.488;2022-11-09T03:26:25;4.01;74.51
65369;HTU21D;51970;53.484;49.488;2022-11-09T03:28:51;4.07;74.99
65369;HTU21D;51970;53.484;49.488;2022-11-09T03:31:17;4.03;75.19
65369;HTU21D;51970;53.484;49.488;2022-11-09T03:33:43;4.06;75.24
65369;HTU21D;51970;53.484;49.488;2022-11-09T03:36:09;4.15;74.73
65369;HTU21D;51970;53.484;49.488;2022-11-09T03:38:36;4.34;74.75
65369;HTU21D;51970;53.484;49.488;2022-11-09T03:41:02;4.09;74.59
65369;HTU21D;51970;53.484;49.488;2022-11-09T03:43:29;4.03;74.57
65369;HTU21D;51970;53.484;49.488;2022-11-09T03:45:55;4.06;74.87
65369;HTU21D;51970;53.484;49.488;2022-11-09T03:48:22;4.13;74.16
65369;HTU21D;51970;53.484;49.488;2022-11-09T03:50:48;4.16;74.56
65369;HTU21D;51970;53.484;49.488;2022-11-09T03:53:14;4.03;75.22
65369;HTU21D;51970;53.484;49.488;2022-11-09T03:55:40;4.00;75.26
65369;HTU21D;51970;53.484;49.488;2022-11-09T03:58:08;3.89;76.57
65369;HTU21D;51970;53.484;49.488;2022-11-09T04:00:34;3.72;77.47
65369;HTU21D;51970;53.484;49.488;2022-11-09T04:03:01;3.64;78.37
65369;HTU21D;51970;53.484;49.488;2022-11-09T04:05:27;3.63;78.65
65369;HTU21D;51970;53.484;49.488;2022-11-09T04:07:55;3.58;78.81
65369;HTU21D;51970;53.484;49.488;2022-11-09T04:10:23;3.55;79.11
65369;HTU21D;51970;53.484;49.488;2022-11-09T04:12:49;3.55;78.85
65369;HTU21D;51970;53.484;49.488;2022-11-09T04:15:16;3.53;78.62
65369;HTU21D;51970;53.484;49.488;2022-11-09T04:17:42;3.55;78.92
65369;HTU21D;51970;53.484;49.488;2022-11-09T04:20:10;3.54;78.27
65369;HTU21D;51970;53.484;49.488;2022-11-09T04:22:36;3.54;78.50
65369;HTU21D;51970;53.484;49.488;2022-11-09T04:25:04;3.55;78.75
65369;HTU21D;51970;53.484;49.488;2022-11-09T04:27:30;3.57;78.46
65369;HTU21D;51970;53.484;49.488;2022-11-09T04:29:56;3.57;78.29
65369;HTU21D;51970;53.484;49.488;2022-11-09T04:32:22;3.59;78.53
65369;HTU21D;51970;53.484;49.488;2022-11-09T04:34:49;3.62;77.68
65369;HTU21D;51970;53.484;49.488;2022-11-09T04:37:15;3.69;76.71
65369;HTU21D;51970;53.484;49.488;2022-11-09T04:39:41;3.68;76.95
65369;HTU21D;51970;53.484;49.488;2022-11-09T04:42:07;3.65;76.60
65369;HTU21D;51970;53.484;49.488;2022-11-09T04:44:34;3.68;76.81
65369;HTU21D;51970;53.484;49.488;2022-11-09T04:47:00;3.73;76.56
65369;HTU21D;51970;53.484;49.488;2022-11-09T04:49:30;3.83;76.56
65369;HTU21D;51970;53.484;49.488;2022-11-09T04:51:59;3.90;76.50
65369;HTU21D;51970;53.484;49.488;2022-11-09T04:54:25;4.02;76.22
65369;HTU21D;51970;53.484;49.488;2022-11-09T04:56:53;4.04;76.60
65369;HTU21D;51970;53.484;49.488;2022-11-09T04:59:19;4.13;75.89
65369;HTU21D;51970;53.484;49.488;2022-11-09T05:01:47;4.38;75.39
65369;HTU21D;51970;53.484;49.488;2022-11-09T05:04:14;4.29;75.41
65369;HTU21D;51970;53.484;49.488;2022-11-09T05:06:42;4.38;75.05
65369;HTU21D;51970;53.484;49.488;2022-11-09T05:09:08;4.32;74.54
65369;HTU21D;51970;53.484;49.488;2022-11-09T05:11:37;4.36;74.09
65369;HTU21D;51970;53.484;49.488;2022-11-09T05:14:05;4.26;73.94
65369;HTU21D;51970;53.484;49.488;2022-11-09T05:16:32;4.24;73.96
65369;HTU21D;51970;53.484;49.488;2022-11-09T05:18:58;4.26;73.98
65369;HTU21D;51970;53.484;49.488;2022-11-09T05:21:24;4.34;74.33
65369;HTU21D;51970;53.484;49.488;2022-11-09T05:23:51;4.39;74.10
65369;HTU21D;51970;53.484;49.488;2022-11-09T05:26:49;4.38;73.72
65369;HTU21D;51970;53.484;49.488;2022-11-09T05:29:45;4.60;73.57
65369;HTU21D;51970;53.484;49.488;2022-11-09T05:32:15;4.83;73.74
65369;HTU21D;51970;53.484;49.488;2022-11-09T05:34:46;4.68;73.28
65369;HTU21D;51970;53.484;49.488;2022-11-09T05:37:23;4.67;73.15
65369;HTU21D;51970;53.484;49.488;2022-11-09T05:39:49;4.68;72.58
65369;HTU21D;51970;53.484;49.488;2022-11-09T05:42:16;4.78;72.99
65369;HTU21D;51970;53.484;49.488;2022-11-09T05:45:04;4.71;72.80
65369;HTU21D;51970;53.484;49.488;2022-11-09T05:47:43;4.73;72.87
65369;HTU21D;51970;53.484;49.488;2022-11-09T05:50:21;4.76;72.37
65369;HTU21D;51970;53.484;49.488;2022-11-09T05:53:02;4.77;72.63
65369;HTU21D;51970;53.484;49.488;2022-11-09T05:55:32;4.80;72.16
65369;HTU21D;51970;53.484;49.488;2022-11-09T05:57:58;4.77;72.32
65369;HTU21D;51970;53.484;49.488;2022-11-09T06:00:33;4.90;72.17
65369;HTU21D;51970;53.484;49.488;2022-11-09T06:03:11;4.86;71.90
65369;HTU21D;51970;53.484;49.488;2022-11-09T06:06:05;5.04;71.51
65369;HTU21D;51970;53.484;49.488;2022-11-09T06:08:33;5.10;71.10
65369;HTU21D;51970;53.484;49.488;2022-11-09T06:11:04;5.12;70.87
65369;HTU21D;51970;53.484;49.488;2022-11-09T06:13:40;5.23;70.84
65369;HTU21D;51970;53.484;49.488;2022-11-09T06:16:14;5.40;70.58
65369;HTU21D;51970;53.484;49.488;2022-11-09T06:19:39;5.66;69.65
65369;HTU21D;51970;53.484;49.488;2022-11-09T06:22:14;5.55;69.67
65369;HTU21D;51970;53.484;49.488;2022-11-09T06:25:12;5.59;69.89
65369;HTU21D;51970;53.484;49.488;2022-11-09T06:27:44;5.49;69.68
65369;HTU21D;51970;53.484;49.488;2022-11-09T06:30:11;5.32;70.21
65369;HTU21D;51970;53.484;49.488;2022-11-09T06:32:37;5.27;70.26
65369;HTU21D;51970;53.484;49.488;2022-11-09T06:35:05;5.21;70.53
65369;HTU21D;51970;53.484;49.488;2022-11-09T06:37:33;5.20;70.72
65369;HTU21D;51970;53.484;49.488;2022-11-09T06:40:05;5.31;70.58
65369;HTU21D;51970;53.484;49.488;2022-11-09T06:42:43;5.47;70.61
65369;HTU21D;51970;53.484;49.488;2022-11-09T06:45:16;5.59;69.89
65369;HTU21D;51970;53.484;49.488;2022-11-09T06:48:05;5.70;69.29
65369;HTU21D;51970;53.484;49.488;2022-11-09T06:50:32;5.76;69.30
65369;HTU21D;51970;53.484;49.488;2022-11-09T06:53:26;5.83;68.92
65369;HTU21D;51970;53.484;49.488;2022-11-09T06:55:57;6.01;68.78
65369;HTU21D;51970;53.484;49.488;2022-11-09T06:58:25;5.93;68.58
65369;HTU21D;51970;53.484;49.488;2022-11-09T07:00:57;5.81;68.86
65369;HTU21D;51970;53.484;49.488;2022-11-09T07:04:07;5.78;69.70
65369;HTU21D;51970;53.484;49.488;2022-11-09T07:07:15;6.10;68.61
65369;HTU21D;51970;53.484;49.488;2022-11-09T07:10:08;6.14;68.46
65369;HTU21D;51970;53.484;49.488;2022-11-09T07:12:40;6.23;68.56
65369;HTU21D;51970;53.484;49.488;2022-11-09T07:15:16;6.33;67.68
65369;HTU21D;51970;53.484;49.488;2022-11-09T07:17:48;6.28;67.50
65369;HTU21D;51970;53.484;49.488;2022-11-09T07:20:25;6.20;68.11
65369;HTU21D;51970;53.484;49.488;2022-11-09T07:22:59;6.16;68.33
65369;HTU21D;51970;53.484;49.488;2022-11-09T07:26:02;6.20;67.95
65369;HTU21D;51970;53.484;49.488;2022-11-09T07:28:32;6.25;67.84
65369;HTU21D;51970;53.484;49.488;2022-11-09T07:30:59;6.21;68.26
65369;HTU21D;51970;53.484;49.488;2022-11-09T07:33:48;6.07;68.36
65369;HTU21D;51970;53.484;49.488;2022-11-09T07:36:39;5.91;69.35
65369;HTU21D;51970;53.484;49.488;2022-11-09T07:39:11;5.80;69.62
65369;HTU21D;51970;53.484;49.488;2022-11-09T07:41:59;5.64;70.39
65369;HTU21D;51970;53.484;49.488;2022-11-09T07:44:28;5.64;70.96
65369;HTU21D;51970;53.484;49.488;2022-11-09T07:46:57;5.80;70.80
65369;HTU21D;51970;53.484;49.488;2022-11-09T07:49:27;5.83;70.78
65369;HTU21D;51970;53.484;49.488;2022-11-09T07:51:54;5.92;71.49
65369;HTU21D;51970;53.484;49.488;2022-11-09T07:54:27;6.06;69.99
65369;HTU21D;51970;53.484;49.488;2022-11-09T07:56:55;6.05;71.09
65369;HTU21D;51970;53.484;49.488;2022-11-09T07:59:23;5.86;70.77
65369;HTU21D;51970;53.484;49.488;2022-11-09T08:01:54;5.63;72.09
65369;HTU21D;51970;53.484;49.488;2022-11-09T08:04:26;5.48;73.12
65369;HTU21D;51970;53.484;49.488;2022-11-09T08:07:14;5.49;73.74
65369;HTU21D;51970;53.484;49.488;2022-11-09T08:10:21;5.38;74.50
65369;HTU21D;51970;53.484;49.488;2022-11-09T08:13:31;5.38;74.87
65369;HTU21D;51970;53.484;49.488;2022-11-09T08:16:53;5.26;75.80
65369;HTU21D;51970;53.484;49.488;2022-11-09T08:23:50;5.23;75.88
65369;HTU21D;51970;53.484;49.488;2022-11-09T08:29:21;5.32;75.71
65369;HTU21D;51970;53.484;49.488;2022-11-09T08:31:52;5.25;75.56
65369;HTU21D;51970;53.484;49.488;2022-11-09T08:34:21;5.21;75.15
65369;HTU21D;51970;53.484;49.488;2022-11-09T08:36:49;5.22;75.18
65369;HTU21D;51970;53.484;49.488;2022-11-09T08:39:44;5.35;75.34
65369;HTU21D;51970;53.484;49.488;2022-11-09T08:42:50;5.42;75.30
65369;HTU21D;51970;53.484;49.488;2022-11-09T08:45:24;5.49;75.25
65369;HTU21D;51970;53.484;49.488;2022-11-09T08:48:14;5.52;74.90
65369;HTU21D;51970;53.484;49.488;2022-11-09T08:50:45;5.59;74.76
65369;HTU21D;51970;53.484;49.488;2022-11-09T08:53:28;5.50;74.88
65369;HTU21D;51970;53.484;49.488;2022-11-09T08:56:10;5.45;74.76
65369;HTU21D;51970;53.484;49.488;2022-11-09T08:58:45;5.49;75.38
65369;HTU21D;51970;53.484;49.488;2022-11-09T09:05:12;5.47;74.95
65369;HTU21D;51970;53.484;49.488;2022-11-09T09:08:08;5.54;75.22
65369;HTU21D;51970;53.484;49.488;2022-11-09T09:11:33;5.45;75.93
65369;HTU21D;51970;53.484;49.488;2022-11-09T09:14:12;5.62;75.50
65369;HTU21D;51970;53.484;49.488;2022-11-09T09:17:28;5.38;76.24
65369;HTU21D;51970;53.484;49.488;2022-11-09T09:19:54;5.37;76.42
65369;HTU21D;51970;53.484;49.488;2022-11-09T09:22:24;5.32;76.47
65369;HTU21D;51970;53.484;49.488;2022-11-09T09:24:53;5.25;76.69
65369;HTU21D;51970;53.484;49.488;2022-11-09T09:27:19;5.33;77.15
65369;HTU21D;51970;53.484;49.488;2022-11-09T09:30:07;5.38;76.30
65369;HTU21D;51970;53.484;49.488;2022-11-09T09:33:08;5.47;76.19
65369;HTU21D;51970;53.484;49.488;2022-11-09T09:35:56;5.53;76.15
65369;HTU21D;51970;53.484;49.488;2022-11-09T09:38:54;5.51;76.66
65369;HTU21D;51970;53.484;49.488;2022-11-09T09:42:01;5.46;76.42
65369;HTU21D;51970;53.484;49.488;2022-11-09T09:45:17;5.47;76.37
65369;HTU21D;51970;53.484;49.488;2022-11-09T09:51:19;5.47;76.86
65369;HTU21D;51970;53.484;49.488;2022-11-09T09:54:30;5.42;76.57
65369;HTU21D;51970;53.484;49.488;2022-11-09T09:58:05;5.49;76.84
65369;HTU21D;51970;53.484;49.488;2022-11-09T10:01:16;5.50;76.95
65369;HTU21D;51970;53.484;49.488;2022-11-09T10:04:35;5.49;77.15
65369;HTU21D;51970;53.484;49.488;2022-11-09T10:07:41;5.47;76.76
65369;HTU21D;51970;53.484;49.488;2022-11-09T10:17:03;5.47;76.80
65369;HTU21D;51970;53.484;49.488;2022-11-09T10:20:30;5.53;76.96
65369;HTU21D;51970;53.484;49.488;2022-11-09T10:26:13;5.46;77.28
65369;HTU21D;51970;53.484;49.488;2022-11-09T10:30:27;5.39;77.13
65369;HTU21D;51970;53.484;49.488;2022-11-09T10:33:33;5.37;76.99
65369;HTU21D;51970;53.484;49.488;2022-11-09T10:40:03;5.46;76.48
65369;HTU21D;51970;53.484;49.488;2022-11-09T10:43:58;5.43;76.18
65369;HTU21D;51970;53.484;49.488;2022-11-09T10:47:23;5.42;76.34
65369;HTU21D;51970;53.484;49.488;2022-11-09T10:52:50;5.43;75.99
65369;HTU21D;51970;53.484;49.488;2022-11-09T10:55:55;5.42;75.92
65369;HTU21D;51970;53.484;49.488;2022-11-09T10:59:46;5.46;76.10
65369;HTU21D;51970;53.484;49.488;2022-11-09T11:02:48;5.46;76.00
65369;HTU21D;51970;53.484;49.488;2022-11-09T11:06:26;5.42;76.59
65369;HTU21D;51970;53.484;49.488;2022-11-09T11:09:28;5.49;76.67
65369;HTU21D;51970;53.484;49.488;2022-11-09T11:19:38;5.50;76.53
65369;HTU21D;51970;53.484;49.488;2022-11-09T11:23:24;5.48;76.57
65369;HTU21D;51970;53.484;49.488;2022-11-09T11:30:25;5.52;76.05
65369;HTU21D;51970;53.484;49.488;2022-11-09T11:34:00;5.45;76.60
65369;HTU21D;51970;53.484;49.488;2022-11-09T11:51:11;5.34;77.29
65369;HTU21D;51970;53.484;49.488;2022-11-09T12:06:42;5.37;78.45
65369;HTU21D;51970;53.484;49.488;2022-11-09T12:10:20;5.35;78.76
65369;HTU21D;51970;53.484;49.488;2022-11-09T12:25:30;5.50;78.10
65369;HTU21D;51970;53.484;49.488;2022-11-09T12:32:29;5.43;78.07
65369;HTU21D;51970;53.484;49.488;2022-11-09T12:44:14;5.43;78.21
65369;HTU21D;51970;53.484;49.488;2022-11-09T12:46:47;5.43;78.11
65369;HTU21D;51970;53.484;49.488;2022-11-09T12:49:40;5.40;78.01
65369;HTU21D;51970;53.484;49.488;2022-11-09T12:52:41;5.40;78.09
65369;HTU21D;51970;53.484;49.488;2022-11-09T12:56:26;5.38;77.99
65369;HTU21D;51970;53.484;49.488;2022-11-09T12:59:21;5.41;78.10
65369;HTU21D;51970;53.484;49.488;2022-11-09T13:02:57;5.45;77.51
65369;HTU21D;51970;53.484;49.488;2022-11-09T13:05:36;5.50;77.81
65369;HTU21D;51970;53.484;49.488;2022-11-09T13:08:18;5.61;77.48
65369;HTU21D;51970;53.484;49.488;2022-11-09T13:11:42;5.51;77.82
65369;HTU21D;51970;53.484;49.488;2022-11-09T13:15:27;5.53;78.01
65369;HTU21D;51970;53.484;49.488;2022-11-09T13:18:04;5.54;77.82
65369;HTU21D;51970;53.484;49.488;2022-11-09T13:20:45;5.50;77.47
65369;HTU21D;51970;53.484;49.488;2022-11-09T13:23:38;5.54;77.72
65369;HTU21D;51970;53.484;49.488;2022-11-09T13:32:41;5.65;77.76
65369;HTU21D;51970;53.484;49.488;2022-11-09T13:36:13;5.53;77.95
65369;HTU21D;51970;53.484;49.488;2022-11-09T13:39:29;5.57;77.66
65369;HTU21D;51970;53.484;49.488;2022-11-09T13:42:51;5.56;77.51
65369;HTU21D;51970;53.484;49.488;2022-11-09T13:45:20;5.52;77.76
65369;HTU21D;51970;53.484;49.488;2022-11-09T13:51:23;5.50;77.47
65369;HTU21D;51970;53.484;49.488;2022-11-09T13:53:57;5.66;77.53
65369;HTU21D;51970;53.484;49.488;2022-11-09T13:56:36;5.57;77.66
65369;HTU21D;51970;53.484;49.488;2022-11-09T13:59:28;5.62;77.56
65369;HTU21D;51970;53.484;49.488;2022-11-09T14:02:26;5.65;77.40
65369;HTU21D;51970;53.484;49.488;2022-11-09T14:04:53;5.68;76.95
65369;HTU21D;51970;53.484;49.488;2022-11-09T14:07:28;5.79;76.63
65369;HTU21D;51970;53.484;49.488;2022-11-09T14:10:11;5.69;76.91
65369;HTU21D;51970;53.484;49.488;2022-11-09T14:18:11;5.74;76.57
65369;HTU21D;51970;53.484;49.488;2022-11-09T14:23:46;5.70;76.99
65369;HTU21D;51970;53.484;49.488;2022-11-09T14:26:18;5.70;77.44
65369;HTU21D;51970;53.484;49.488;2022-11-09T14:28:45;5.70;77.02
65369;HTU21D;51970;53.484;49.488;2022-11-09T14:31:27;5.81;76.97
65369;HTU21D;51970;53.484;49.488;2022-11-09T14:34:04;5.79;76.82
65369;HTU21D;51970;53.484;49.488;2022-11-09T14:36:34;5.79;76.90
65369;HTU21D;51970;53.484;49.488;2022-11-09T14:39:03;5.76;77.05
65369;HTU21D;51970;53.484;49.488;2022-11-09T14:41:34;5.77;76.92
65369;HTU21D;51970;53.484;49.488;2022-11-09T14:44:00;5.78;76.63
65369;HTU21D;51970;53.484;49.488;2022-11-09T14:46:29;5.80;76.86
65369;HTU21D;51970;53.484;49.488;2022-11-09T14:49:01;5.81;76.63
65369;HTU21D;51970;53.484;49.488;2022-11-09T14:51:36;5.89;76.76
65369;HTU21D;51970;53.484;49.488;2022-11-09T14:54:13;5.86;76.76
65369;HTU21D;51970;53.484;49.488;2022-11-09T14:56:42;5.82;76.92
65369;HTU21D;51970;53.484;49.488;2022-11-09T14:59:16;5.83;76.92
65369;HTU21D;51970;53.484;49.488;2022-11-09T15:02:17;5.84;77.00
65369;HTU21D;51970;53.484;49.488;2022-11-09T15:05:00;5.84;76.86
65369;HTU21D;51970;53.484;49.488;2022-11-09T15:07:31;5.85;76.98
65369;HTU21D;51970;53.484;49.488;2022-11-09T15:10:00;5.86;76.94
65369;HTU21D;51970;53.484;49.488;2022-11-09T15:12:36;5.86;76.95
65369;HTU21D;51970;53.484;49.488;2022-11-09T15:15:04;5.94;77.08
65369;HTU21D;51970;53.484;49.488;2022-11-09T15:17:36;5.89;77.26
65369;HTU21D;51970;53.484;49.488;2022-11-09T15:20:27;5.83;77.53
65369;HTU21D;51970;53.484;49.488;2022-11-09T15:22:56;5.81;77.48
65369;HTU21D;51970;53.484;49.488;2022-11-09T15:25:35;5.78;77.53
65369;HTU21D;51970;53.484;49.488;2022-11-09T15:28:17;5.84;77.20
65369;HTU21D;51970;53.484;49.488;2022-11-09T15:33:28;5.95;77.03
65369;HTU21D;51970;53.484;49.488;2022-11-09T15:36:25;5.97;76.60
65369;HTU21D;51970;53.484;49.488;2022-11-09T15:41:27;5.87;77.10
65369;HTU21D;51970;53.484;49.488;2022-11-09T15:43:53;5.92;77.44
65369;HTU21D;51970;53.484;49.488;2022-11-09T15:46:30;5.89;77.37
65369;HTU21D;51970;53.484;49.488;2022-11-09T15:49:15;5.89;77.27
65369;HTU21D;51970;53.484;49.488;2022-11-09T15:51:52;5.90;77.32
65369;HTU21D;51970;53.484;49.488;2022-11-09T15:54:22;5.91;77.42
65369;HTU21D;51970;53.484;49.488;2022-11-09T15:56:49;5.91;77.31
65369;HTU21D;51970;53.484;49.488;2022-11-09T15:59:24;5.90;77.36
65369;HTU21D;51970;53.484;49.488;2022-11-09T16:01:51;5.86;77.22
65369;HTU21D;51970;53.484;49.488;2022-11-09T16:04:18;5.87;77.47
65369;HTU21D;51970;53.484;49.488;2022-11-09T16:06:44;5.87;77.25
65369;HTU21D;51970;53.484;49.488;2022-11-09T16:09:30;5.92;77.25
65369;HTU21D;51970;53.484;49.488;2022-11-09T16:11:59;5.95;77.09
65369;HTU21D;51970;53.484;49.488;2022-11-09T16:14:41;5.98;76.75
65369;HTU21D;51970;53.484;49.488;2022-11-09T16:17:30;6.10;77.08
65369;HTU21D;51970;53.484;49.488;2022-11-09T16:19:58;6.04;76.84
65369;HTU21D;51970;53.484;49.488;2022-11-09T16:22:29;6.05;76.82
65369;HTU21D;51970;53.484;49.488;2022-11-09T16:24:56;5.97;77.17
65369;HTU21D;51970;53.484;49.488;2022-11-09T16:27:29;5.94;77.40
65369;HTU21D;51970;53.484;49.488;2022-11-09T16:29:56;5.89;77.57
65369;HTU21D;51970;53.484;49.488;2022-11-09T16:32:46;5.93;77.95
65369;HTU21D;51970;53.484;49.488;2022-11-09T16:35:14;5.91;77.94
65369;HTU21D;51970;53.484;49.488;2022-11-09T16:37:42;6.06;78.21
65369;HTU21D;51970;53.484;49.488;2022-11-09T16:40:12;5.84;77.99
65369;HTU21D;51970;53.484;49.488;2022-11-09T16:42:47;5.83;78.08
65369;HTU21D;51970;53.484;49.488;2022-11-09T16:45:15;5.84;78.21
65369;HTU21D;51970;53.484;49.488;2022-11-09T16:47:52;5.84;78.01
65369;HTU21D;51970;53.484;49.488;2022-11-09T16:50:52;5.96;77.97
65369;HTU21D;51970;53.484;49.488;2022-11-09T16:54:09;5.98;77.70
65369;HTU21D;51970;53.484;49.488;2022-11-09T16:56:43;6.05;77.17
65369;HTU21D;51970;53.484;49.488;2022-11-09T16:59:15;6.09;77.01
65369;HTU21D;51970;53.484;49.488;2022-11-09T17:01:42;6.00;77.34
65369;HTU21D;51970;53.484;49.488;2022-11-09T17:04:15;5.96;76.95
65369;HTU21D;51970;53.484;49.488;2022-11-09T17:06:42;5.94;77.40
65369;HTU21D;51970;53.484;49.488;2022-11-09T17:09:09;5.93;77.56
65369;HTU21D;51970;53.484;49.488;2022-11-09T17:11:36;5.92;77.67
65369;HTU21D;51970;53.484;49.488;2022-11-09T17:14:07;5.91;77.46
65369;HTU21D;51970;53.484;49.488;2022-11-09T17:16:50;5.92;77.65
65369;HTU21D;51970;53.484;49.488;2022-11-09T17:19:16;5.92;77.53
65369;HTU21D;51970;53.484;49.488;2022-11-09T17:21:45;5.87;77.42
65369;HTU21D;51970;53.484;49.488;2022-11-09T17:24:15;5.81;77.69
65369;HTU21D;51970;53.484;49.488;2022-11-09T17:26:47;5.84;78.07
65369;HTU21D;51970;53.484;49.488;2022-11-09T17:29:13;5.80;77.99
65369;HTU21D;51970;53.484;49.488;2022-11-09T17:31:40;5.76;78.00
65369;HTU21D;51970;53.484;49.488;2022-11-09T17:34:24;5.77;77.73
65369;HTU21D;51970;53.484;49.488;2022-11-09T17:37:01;5.83;77.78
65369;HTU21D;51970;53.484;49.488;2022-11-09T17:39:29;5.78;77.56
65369;HTU21D;51970;53.484;49.488;2022-11-09T17:41:55;5.82;77.93
65369;HTU21D;51970;53.484;49.488;2022-11-09T17:44:21;5.80;77.87
65369;HTU21D;51970;53.484;49.488;2022-11-09T17:46:47;5.78;77.86
65369;HTU21D;51970;53.484;49.488;2022-11-09T17:49:13;5.79;77.83
65369;HTU21D;51970;53.484;49.488;2022-11-09T17:51:41;5.77;77.92
65369;HTU21D;51970;53.484;49.488;2022-11-09T17:54:14;5.80;77.86
65369;HTU21D;51970;53.484;49.488;2022-11-09T17:56:41;5.79;77.85
65369;HTU21D;51970;53.484;49.488;2022-11-09T17:59:08;5.78;78.23
65369;HTU21D;51970;53.484;49.488;2022-11-09T18:01:39;5.77;78.21
65369;HTU21D;51970;53.484;49.488;2022-11-09T18:04:25;5.74;78.63
65369;HTU21D;51970;53.484;49.488;2022-11-09T18:06:54;5.72;78.53
65369;HTU21D;51970;53.484;49.488;2022-11-09T18:09:24;5.74;78.75
65369;HTU21D;51970;53.484;49.488;2022-11-09T18:11:52;5.76;78.98
65369;HTU21D;51970;53.484;49.488;2022-11-09T18:14:24;5.75;78.46
65369;HTU21D;51970;53.484;49.488;2022-11-09T18:16:55;5.72;78.59
65369;HTU21D;51970;53.484;49.488;2022-11-09T18:19:42;5.74;78.56
65369;HTU21D;51970;53.484;49.488;2022-11-09T18:22:08;5.68;78.75